Time;durP1;ratioP1;P1;durP2;ratioP2;P2;SDS_P1;SDS_P2;PMS_P1;PMS_P2;Temp;Humidity;BMP_temperature;BMP_pressure;BME280_temperature;BME280_humidity;BME280_pressure;Samples;Min_cycle;Max_cycle;Signal;HPM_P1;HPM_P2
2023/08/13 00:00:35;;;;;;;9.87;8.97;;;21.10;99.90;;;;;;6187187;23;20454;-77
2023/08/13 00:03:04;;;;;;;10.10;9.20;;;21.00;99.90;;;;;;6187567;23;20378;-77
2023/08/13 00:05:38;;;;;;;10.83;9.73;;;21.00;99.90;;;;;;6188623;23;20499;-77
2023/08/13 00:08:18;;;;;;;11.40;10.30;;;21.00;99.90;;;;;;6187448;23;20411;-77
2023/08/13 00:10:55;;;;;;;10.33;9.53;;;21.00;99.90;;;;;;6188747;23;20376;-78
2023/08/13 00:13:26;;;;;;;10.97;9.83;;;21.00;99.90;;;;;;6186827;23;20517;-77
2023/08/13 00:16:05;;;;;;;10.67;9.77;;;21.00;99.90;;;;;;6187217;23;20928;-76
2023/08/13 00:18:36;;;;;;;9.60;8.63;;;21.00;99.90;;;;;;6186420;23;20438;-77
2023/08/13 00:21:10;;;;;;;9.70;8.90;;;20.90;99.90;;;;;;6186501;23;20449;-77
2023/08/13 00:23:39;;;;;;;11.27;10.10;;;20.90;99.90;;;;;;6186492;23;20411;-77
2023/08/13 00:26:12;;;;;;;11.40;9.67;;;20.90;99.90;;;;;;6187473;23;20723;-76
2023/08/13 00:28:56;;;;;;;11.10;9.97;;;20.90;99.90;;;;;;6186640;23;20474;-77
2023/08/13 00:31:32;;;;;;;11.10;9.60;;;20.80;99.90;;;;;;6186518;23;20502;-77
2023/08/13 00:34:12;;;;;;;11.43;9.93;;;20.80;99.90;;;;;;6186402;23;20915;-77
2023/08/13 00:36:52;;;;;;;10.00;9.20;;;20.70;99.90;;;;;;6187625;23;20431;-77
2023/08/13 00:39:40;;;;;;;11.00;10.00;;;20.70;99.90;;;;;;6188821;23;20439;-77
2023/08/13 00:42:38;;;;;;;10.00;9.10;;;20.70;99.90;;;;;;6188882;23;20411;-78
2023/08/13 00:45:16;;;;;;;9.87;8.90;;;20.70;99.90;;;;;;6188886;23;20413;-78
2023/08/13 00:47:57;;;;;;;10.93;9.03;;;20.70;99.90;;;;;;6190337;23;20458;-77
2023/08/13 00:50:39;;;;;;;10.63;9.67;;;20.60;99.90;;;;;;6189580;23;20495;-78
2023/08/13 00:53:17;;;;;;;10.20;9.13;;;20.60;99.90;;;;;;6191289;23;20402;-78
2023/08/13 00:55:52;;;;;;;10.40;9.60;;;20.60;99.90;;;;;;6193034;23;20488;-77
2023/08/13 00:59:19;;;;;;;11.33;10.40;;;20.60;99.90;;;;;;6194754;23;20446;-77
2023/08/13 01:01:57;;;;;;;10.30;9.40;;;20.50;99.90;;;;;;6152192;23;20437;-77
2023/08/13 01:04:58;;;;;;;9.60;8.80;;;20.50;99.90;;;;;;6191778;23;20459;-79
2023/08/13 01:08:17;;;;;;;10.40;9.57;;;20.40;99.90;;;;;;6191356;23;20426;-78
2023/08/13 01:13:49;;;;;;;9.90;8.93;;;20.40;99.90;;;;;;6184770;23;20412;-77
2023/08/13 01:16:52;;;;;;;9.77;9.00;;;20.40;99.90;;;;;;6189811;23;20502;-77
2023/08/13 01:19:29;;;;;;;10.87;9.87;;;20.30;99.90;;;;;;6190792;23;20506;-76
2023/08/13 01:22:10;;;;;;;10.13;9.23;;;20.30;99.90;;;;;;6190556;23;20930;-77
2023/08/13 01:24:53;;;;;;;9.90;9.10;;;20.30;99.90;;;;;;6190853;23;20402;-77
2023/08/13 01:27:36;;;;;;;9.40;8.60;;;20.30;99.90;;;;;;6193063;23;20399;-78
2023/08/13 01:36:27;;;;;;;9.17;8.37;;;20.20;99.90;;;;;;6096095;23;20502;-78
2023/08/13 01:42:22;;;;;;;8.13;7.53;;;20.20;99.90;;;;;;6163856;23;20408;-78
2023/08/13 01:45:25;;;;;;;8.97;8.23;;;20.10;99.90;;;;;;6191833;23;20420;-77
2023/08/13 01:51:13;;;;;;;16.50;14.97;;;20.00;99.90;;;;;;6187467;23;20453;-77
2023/08/13 01:54:23;;;;;;;10.73;9.83;;;20.00;99.90;;;;;;6126623;23;20502;-79
2023/08/13 01:57:27;;;;;;;9.97;9.27;;;20.00;99.90;;;;;;6185341;23;20435;-77
2023/08/13 02:00:16;;;;;;;8.27;7.67;;;20.00;99.90;;;;;;6186130;23;20449;-78
2023/08/13 02:03:02;;;;;;;8.97;8.17;;;20.00;99.90;;;;;;6185841;23;20558;-77
2023/08/13 02:05:47;;;;;;;7.97;7.47;;;20.00;99.90;;;;;;6186822;23;20435;-77
2023/08/13 02:08:23;;;;;;;8.10;7.50;;;19.90;99.90;;;;;;6187977;23;20387;-79
2023/08/13 02:11:14;;;;;;;8.77;8.03;;;19.90;99.90;;;;;;6185777;23;20494;-78
2023/08/13 02:14:05;;;;;;;8.47;7.77;;;19.90;99.90;;;;;;6187331;23;20423;-77
2023/08/13 02:16:59;;;;;;;7.87;7.17;;;19.90;99.90;;;;;;6187609;23;20523;-77
2023/08/13 02:19:51;;;;;;;;;;;;;;;;;;;;;
2023/08/13 02:22:47;;;;;;;8.73;7.83;;;19.90;99.90;;;;;;6190413;23;20401;-77
2023/08/13 02:25:30;;;;;;;8.20;7.67;;;20.20;99.90;;;;;;6197426;23;20458;-77
2023/08/13 02:28:24;;;;;;;7.70;7.20;;;19.90;99.90;;;;;;6192175;23;20442;-78
2023/08/13 02:48:28;;;;;;;9.03;8.23;;;19.80;99.90;;;;;;6019631;23;20411;-77
2023/08/13 02:51:35;;;;;;;7.60;7.00;;;19.80;99.90;;;;;;6022408;23;20432;-77
2023/08/13 02:55:24;;;;;;;8.70;7.80;;;19.90;99.90;;;;;;6018801;23;20441;-77
2023/08/13 03:05:57;;;;;;;10.27;7.77;;;19.80;99.90;;;;;;4238915;27;25947299;-77
2023/08/13 03:21:40;;;;;;;8.60;7.80;;;19.80;99.90;;;;;;5130834;28;20437;-78
2023/08/13 03:27:26;;;;;;;8.83;8.13;;;19.90;99.90;;;;;;5133089;28;20446;-78
2023/08/13 03:30:09;;;;;;;8.27;7.67;;;19.80;99.90;;;;;;5123746;28;20453;-77
2023/08/13 03:33:37;;;;;;;8.30;7.63;;;19.80;99.90;;;;;;5136957;28;20454;-78
2023/08/13 03:36:21;;;;;;;8.80;8.00;;;19.90;99.90;;;;;;5051718;28;20461;-78
2023/08/13 03:39:16;;;;;;;8.40;7.80;;;19.80;99.90;;;;;;5061135;28;20446;-78
2023/08/13 03:42:12;;;;;;;9.33;8.53;;;19.80;99.90;;;;;;5136976;28;20446;-77
2023/08/13 03:45:21;;;;;;;8.50;7.90;;;19.80;99.90;;;;;;5136135;28;20485;-78
2023/08/13 03:59:17;;;;;;;;;;;;;;;;;;;;;
2023/08/13 04:02:21;;;;;;;;;;;;;;;;;;;;;
2023/08/13 04:11:51;;;;;;;;;;;;;;;;;;;;;
2023/08/13 04:18:34;;;;;;;8.33;7.73;;;19.70;99.90;;;;;;5053989;28;20453;-76
2023/08/13 04:24:47;;;;;;;;;;;;;;;;;;;;;
2023/08/13 04:27:48;;;;;;;10.87;9.30;;;19.70;99.90;;;;;;5039076;28;20441;-77
2023/08/13 04:30:49;;;;;;;8.83;8.23;;;19.70;99.90;;;;;;5120221;28;20446;-79
2023/08/13 04:33:42;;;;;;;8.83;8.13;;;19.80;99.90;;;;;;5124488;28;20474;-77
2023/08/13 04:36:32;;;;;;;9.60;8.60;;;19.70;99.90;;;;;;5019747;28;20471;-76
2023/08/13 04:42:25;;;;;;;10.03;9.23;;;19.80;99.90;;;;;;5124143;27;20521;-77
2023/08/13 04:45:01;;;;;;;10.80;9.80;;;19.80;99.90;;;;;;5140069;27;20474;-76
2023/08/13 04:47:36;;;;;;;11.07;10.27;;;19.80;99.90;;;;;;5142001;27;20866;-77
2023/08/13 04:50:22;;;;;;;10.50;9.50;;;19.80;99.90;;;;;;5140848;27;20984;-78
2023/08/13 04:52:53;;;;;;;10.83;9.93;;;19.80;99.90;;;;;;5140015;27;20450;-76
2023/08/13 05:01:38;;;;;;;12.00;10.83;;;19.90;99.90;;;;;;5107273;28;20824;-77
2023/08/13 05:04:48;;;;;;;11.93;10.97;;;19.80;99.90;;;;;;5121162;28;20488;-77
2023/08/13 05:07:51;;;;;;;11.03;10.10;;;19.90;99.90;;;;;;5135911;27;20440;-78
2023/08/13 05:10:38;;;;;;;12.20;11.00;;;19.90;99.90;;;;;;5075161;28;20429;-77
2023/08/13 05:13:17;;;;;;;11.43;10.57;;;19.90;99.90;;;;;;5134642;27;20453;-78
2023/08/13 05:15:59;;;;;;;11.77;10.77;;;19.90;99.90;;;;;;5138407;27;20449;-77
2023/08/13 05:18:33;;;;;;;10.93;10.03;;;20.00;99.90;;;;;;5128301;27;20446;-78
2023/08/13 05:21:09;;;;;;;13.07;10.47;;;20.00;99.90;;;;;;5137154;27;20422;-77
2023/08/13 05:26:33;;;;;;;11.47;10.47;;;20.00;99.90;;;;;;5122094;27;20459;-79
2023/08/13 05:29:05;;;;;;;11.73;10.83;;;20.10;99.90;;;;;;5134150;27;20435;-77
2023/08/13 05:32:07;;;;;;;11.10;10.10;;;20.10;99.90;;;;;;5131687;27;20439;-77
2023/08/13 05:34:49;;;;;;;10.77;9.83;;;20.10;99.90;;;;;;5136861;27;20487;-77
2023/08/13 05:44:36;;;;;;;10.60;9.70;;;20.10;99.90;;;;;;5095430;28;20990;-76
2023/08/13 05:50:19;;;;;;;9.53;8.63;;;20.10;99.90;;;;;;5116362;27;20427;-78
2023/08/13 05:53:11;;;;;;;8.93;8.33;;;20.10;99.90;;;;;;5127537;27;20442;-77
2023/08/13 05:59:28;;;;;;;10.07;9.17;;;20.10;99.90;;;;;;5090069;27;20433;-78
2023/08/13 06:02:12;;;;;;;10.13;9.43;;;20.10;99.90;;;;;;5124143;27;20453;-79
2023/08/13 06:05:12;;;;;;;9.87;9.07;;;20.20;99.90;;;;;;5125448;27;20482;-77
2023/08/13 06:10:57;;;;;;;11.43;10.53;;;20.30;99.90;;;;;;5118056;27;20692;-77
2023/08/13 06:16:40;;;;;;;12.40;11.40;;;20.30;99.90;;;;;;5131131;27;20442;-78
2023/08/13 06:19:30;;;;;;;12.50;11.40;;;20.30;99.90;;;;;;5123506;27;20438;-79
2023/08/13 06:22:12;;;;;;;13.23;12.03;;;20.30;99.90;;;;;;5128117;27;20512;-78
2023/08/13 06:24:56;;;;;;;13.60;12.40;;;20.30;99.90;;;;;;5134719;27;20469;-79
2023/08/13 06:27:36;;;;;;;13.50;12.13;;;20.30;99.90;;;;;;5124672;27;20434;-80
2023/08/13 06:30:10;;;;;;;12.17;11.23;;;20.40;99.90;;;;;;5127071;27;20447;-78
2023/08/13 06:32:43;;;;;;;12.70;11.70;;;20.40;99.90;;;;;;5133553;27;20438;-78
2023/08/13 06:35:26;;;;;;;12.30;11.30;;;20.40;99.90;;;;;;5118503;27;20557;-79
2023/08/13 06:37:57;;;;;;;11.77;10.73;;;20.50;99.90;;;;;;5125228;27;20439;-79
2023/08/13 06:40:33;;;;;;;12.00;10.90;;;20.50;99.90;;;;;;5131378;27;20435;-78
2023/08/13 06:43:05;;;;;;;12.77;11.67;;;20.40;99.90;;;;;;5131139;27;20578;-78
2023/08/13 06:45:36;;;;;;;12.20;11.20;;;20.50;99.90;;;;;;5130366;27;20844;-78
2023/08/13 06:48:11;;;;;;;12.10;11.10;;;20.50;99.90;;;;;;5130439;27;20447;-78
2023/08/13 06:50:41;;;;;;;11.57;10.60;;;20.40;99.90;;;;;;5134643;27;20466;-80
2023/08/13 06:53:11;;;;;;;11.40;10.50;;;20.40;99.90;;;;;;5134059;27;20513;-77
2023/08/13 06:55:46;;;;;;;11.97;10.87;;;20.50;99.90;;;;;;5129121;27;20475;-80
2023/08/13 06:58:27;;;;;;;12.23;11.33;;;20.50;99.90;;;;;;5126200;28;20821;-77
2023/08/13 07:00:56;;;;;;;11.70;10.70;;;20.60;99.90;;;;;;5144061;27;20449;-77
2023/08/13 07:03:28;;;;;;;13.20;11.90;;;20.60;99.90;;;;;;5128300;28;21018;-79
2023/08/13 07:06:01;;;;;;;11.87;10.90;;;20.60;99.90;;;;;;5129680;28;20896;-77
2023/08/13 07:08:52;;;;;;;12.67;11.27;;;20.60;99.90;;;;;;5134081;28;21044;-78
2023/08/13 07:11:59;;;;;;;12.87;11.70;;;20.60;99.90;;;;;;5134228;28;20899;-77
2023/08/13 07:20:48;;;;;;;12.00;11.00;;;20.80;99.90;;;;;;5117139;28;20439;-76
2023/08/13 07:23:25;;;;;;;12.93;11.70;;;20.80;99.90;;;;;;5142881;27;20422;-80
2023/08/13 07:26:00;;;;;;;11.77;10.80;;;20.90;99.90;;;;;;5144300;28;20560;-77
2023/08/13 07:29:06;;;;;;;12.40;11.37;;;20.80;99.90;;;;;;5132849;28;20449;-77
2023/08/13 07:32:06;;;;;;;12.10;11.20;;;20.90;99.90;;;;;;5126531;28;20861;-76
2023/08/13 07:34:42;;;;;;;11.37;10.47;;;21.00;99.90;;;;;;5134563;28;20431;-77
2023/08/13 07:37:35;;;;;;;11.90;10.90;;;21.10;99.90;;;;;;5142372;28;20533;-77
2023/08/13 07:40:24;;;;;;;11.20;10.30;;;21.00;99.90;;;;;;5131569;28;20518;-79
2023/08/13 07:44:05;;;;;;;10.50;9.70;;;21.10;99.90;;;;;;5137789;28;20603;-77
2023/08/13 07:50:16;;;;;;;11.43;10.53;;;21.20;99.90;;;;;;5134771;27;20440;-77
2023/08/13 07:56:08;;;;;;;;;;;;;;;;;;;;;
2023/08/13 07:58:53;;;;;;;9.80;9.10;;;21.20;99.90;;;;;;5046046;28;20442;-77
2023/08/13 08:04:44;;;;;;;11.13;10.33;;;21.50;99.90;;;;;;5063896;27;20468;-77
2023/08/13 08:10:48;;;;;;;9.20;8.40;;;21.70;99.90;;;;;;5135636;27;20429;-77
2023/08/13 08:13:25;;;;;;;10.30;9.40;;;21.70;99.90;;;;;;5135201;27;20556;-78
2023/08/13 08:15:57;;;;;;;10.20;9.40;;;21.70;99.90;;;;;;5132090;27;20457;-77
2023/08/13 08:25:38;;;;;;;10.30;9.50;;;21.90;99.90;;;;;;5068232;28;21278;-77
2023/08/13 08:28:44;;;;;;;10.90;10.00;;;21.90;99.90;;;;;;5107347;27;20471;-79
2023/08/13 08:43:54;;;;;;;7.80;7.20;;;22.10;99.90;;;;;;5139699;27;20434;-77
2023/08/13 08:49:28;;;;;;;8.40;7.70;;;22.20;99.90;;;;;;5112138;27;20434;-77
2023/08/13 08:52:14;;;;;;;8.00;7.40;;;22.30;99.90;;;;;;5124552;27;20432;-77
2023/08/13 08:55:26;;;;;;;7.43;6.83;;;22.40;99.90;;;;;;5132256;27;20446;-80
2023/08/13 08:58:23;;;;;;;7.67;7.07;;;22.40;99.90;;;;;;5105175;27;20479;-77
2023/08/13 09:01:22;;;;;;;7.27;6.77;;;22.50;99.90;;;;;;5111640;27;20538;-77
2023/08/13 09:04:16;;;;;;;7.33;6.60;;;22.50;99.90;;;;;;5118481;27;20564;-75
2023/08/13 09:07:11;;;;;;;7.63;7.03;;;22.60;99.90;;;;;;5126110;27;20526;-79
2023/08/13 09:09:53;;;;;;;7.07;6.47;;;22.80;99.90;;;;;;5139995;27;20548;-78
2023/08/13 09:12:26;;;;;;;7.20;6.70;;;22.70;99.90;;;;;;5127964;27;20506;-78
2023/08/13 09:18:53;;;;;;;7.10;6.50;;;22.70;99.90;;;;;;5055091;28;20433;-78
2023/08/13 09:25:18;;;;;;;6.67;6.27;;;22.60;99.90;;;;;;5085312;28;20429;-76
2023/08/13 09:28:26;;;;;;;6.37;5.87;;;22.90;99.90;;;;;;5085091;28;20512;-77
2023/08/13 09:31:26;;;;;;;5.87;5.37;;;23.10;99.90;;;;;;5074476;28;20449;-76
2023/08/13 09:34:10;;;;;;;7.80;5.60;;;23.30;99.90;;;;;;5069082;28;20507;-78
2023/08/13 09:36:44;;;;;;;6.60;6.03;;;23.60;99.90;;;;;;5138988;27;20485;-77
2023/08/13 09:42:22;;;;;;;5.47;4.97;;;24.70;99.90;;;;;;5126182;27;20419;-77
2023/08/13 09:47:58;;;;;;;6.70;5.73;;;24.80;99.90;;;;;;5139148;27;21025;-77
2023/08/13 09:50:29;;;;;;;5.27;4.97;;;25.10;99.90;;;;;;5141202;27;20430;-79
2023/08/13 09:53:01;;;;;;;6.70;6.20;;;25.10;99.90;;;;;;5141623;27;20446;-82
2023/08/13 09:55:41;;;;;;;7.50;7.00;;;25.10;99.90;;;;;;5140577;27;20468;-80
2023/08/13 09:58:18;;;;;;;6.47;5.90;;;25.30;99.90;;;;;;5141483;27;20434;-78
2023/08/13 10:00:47;;;;;;;5.47;5.10;;;25.70;99.90;;;;;;5140355;27;20441;-78
2023/08/13 10:03:17;;;;;;;5.50;5.10;;;25.90;99.90;;;;;;5138886;27;20960;-78
2023/08/13 10:05:46;;;;;;;4.83;4.53;;;26.30;99.90;;;;;;5136240;27;20995;-79
2023/08/13 10:08:15;;;;;;;5.00;4.57;;;26.40;99.90;;;;;;5136233;27;20533;-80
2023/08/13 10:10:44;;;;;;;4.60;4.30;;;26.50;99.90;;;;;;5135691;27;20449;-80
2023/08/13 10:13:16;;;;;;;5.70;5.30;;;26.60;99.90;;;;;;5140363;27;20964;-79
2023/08/13 10:16:01;;;;;;;6.00;5.50;;;26.70;99.90;;;;;;5143320;27;20561;-78
2023/08/13 10:18:49;;;;;;;5.40;5.00;;;26.80;99.90;;;;;;5140537;27;20457;-80
2023/08/13 10:21:45;;;;;;;5.40;4.90;;;26.70;99.90;;;;;;5142662;27;20422;-78
2023/08/13 10:24:40;;;;;;;4.80;4.50;;;26.60;99.90;;;;;;5119624;28;20447;-78
2023/08/13 10:27:30;;;;;;;5.17;4.57;;;26.60;99.90;;;;;;5121996;28;20481;-78
2023/08/13 10:30:15;;;;;;;4.80;4.50;;;26.90;99.90;;;;;;5121612;28;20519;-78
2023/08/13 10:32:59;;;;;;;4.27;3.97;;;27.00;99.90;;;;;;5121841;28;21050;-80
2023/08/13 10:35:34;;;;;;;5.37;4.97;;;27.20;99.90;;;;;;5122931;28;20470;-79
2023/08/13 10:38:20;;;;;;;5.03;4.63;;;27.30;99.90;;;;;;5124044;28;20508;-80
2023/08/13 10:41:12;;;;;;;5.07;4.67;;;26.70;99.90;;;;;;5123413;28;20968;-78
2023/08/13 10:44:09;;;;;;;4.73;4.33;;;26.30;99.90;;;;;;5125745;28;20474;-79
2023/08/13 10:47:01;;;;;;;4.60;4.30;;;26.50;99.90;;;;;;5130177;28;20587;-78
2023/08/13 10:49:41;;;;;;;5.40;4.87;;;26.80;99.90;;;;;;5130458;28;20473;-78
2023/08/13 10:52:18;;;;;;;5.40;4.90;;;27.20;99.90;;;;;;5129453;28;20451;-78
2023/08/13 10:55:03;;;;;;;4.97;4.57;;;26.50;99.90;;;;;;5125116;28;20454;-78
2023/08/13 10:57:43;;;;;;;5.07;4.73;;;26.50;99.90;;;;;;5119263;28;20458;-79
2023/08/13 11:00:22;;;;;;;5.57;5.00;;;26.20;99.90;;;;;;5118168;28;20445;-78
2023/08/13 11:03:15;;;;;;;5.47;5.00;;;25.90;99.90;;;;;;5116451;28;20950;-78
2023/08/13 11:05:52;;;;;;;5.37;4.97;;;26.00;99.90;;;;;;5115856;28;20494;-78
2023/08/13 11:08:29;;;;;;;7.00;5.30;;;26.00;99.90;;;;;;5118368;28;20446;-77
2023/08/13 11:11:00;;;;;;;4.70;4.40;;;26.50;99.90;;;;;;5115860;28;20491;-79
2023/08/13 11:13:31;;;;;;;5.40;4.90;;;27.10;99.90;;;;;;5116429;28;20447;-80
2023/08/13 11:15:59;;;;;;;4.30;3.93;;;27.10;99.90;;;;;;5115199;28;21053;-82
2023/08/13 11:21:20;;;;;;;4.70;4.30;;;26.90;99.90;;;;;;5120624;28;20514;-82
2023/08/13 11:24:04;;;;;;;4.67;4.37;;;27.10;99.90;;;;;;5120393;28;20446;-79
2023/08/13 11:26:48;;;;;;;4.37;4.10;;;26.80;99.90;;;;;;5123421;28;20583;-80
2023/08/13 11:29:35;;;;;;;4.77;4.47;;;27.00;99.90;;;;;;5124372;28;20450;-78
2023/08/13 11:32:09;;;;;;;5.33;4.93;;;27.60;99.90;;;;;;5124525;28;20930;-79
2023/08/13 11:34:51;;;;;;;5.20;4.80;;;27.00;99.90;;;;;;5124176;28;20451;-78
2023/08/13 11:40:15;;;;;;;5.70;5.20;;;27.20;99.90;;;;;;5126093;28;20447;-79
2023/08/13 11:43:01;;;;;;;6.00;5.47;;;27.20;99.90;;;;;;5126909;28;20450;-79
2023/08/13 11:45:33;;;;;;;6.50;5.90;;;26.80;99.90;;;;;;5115894;28;20478;-78
2023/08/13 11:48:33;;;;;;;6.53;6.03;;;26.30;99.90;;;;;;5132466;28;20442;-78
2023/08/13 11:51:25;;;;;;;5.87;5.37;;;26.10;99.90;;;;;;5119141;28;20884;-78
2023/08/13 11:54:00;;;;;;;6.27;5.73;;;26.10;99.90;;;;;;5128462;28;20470;-78
2023/08/13 11:57:02;;;;;;;5.90;5.40;;;26.40;99.90;;;;;;5129578;28;20747;-80
2023/08/13 12:07:09;;;;;;;6.53;5.87;;;;;;;;;;5115279;28;20459;-81
2023/08/13 12:12:47;;;;;;;6.97;6.27;;;27.40;99.90;;;;;;5112615;28;20958;-77
2023/08/13 12:15:51;;;;;;;;;;;;;;;;;;;;;
2023/08/13 12:19:07;;;;;;;5.13;4.80;;;27.20;99.90;;;;;;5116470;28;20447;-81
2023/08/13 12:21:54;;;;;;;5.80;5.30;;;27.30;99.90;;;;;;5099543;28;20527;-79
2023/08/13 12:28:20;;;;;;;6.27;4.73;;;28.00;99.90;;;;;;5096640;28;20427;-81
2023/08/13 12:36:47;;;;;;;5.77;4.83;;;;;;;;;;5111909;28;20463;-79
2023/08/13 12:39:57;;;;;;;4.40;4.10;;;28.70;99.90;;;;;;5116765;28;20530;-79
2023/08/13 12:43:00;;;;;;;;;;;;;;;;;;;;;
2023/08/13 12:45:57;;;;;;;5.07;4.47;;;29.50;99.90;;;;;;5116779;28;20463;-79
2023/08/13 12:52:14;;;;;;;4.33;4.03;;;28.80;99.90;;;;;;5115542;28;20931;-79
2023/08/13 12:55:09;;;;;;;4.57;4.17;;;28.20;99.90;;;;;;5114968;28;20450;-77
2023/08/13 12:58:09;;;;;;;4.47;3.80;;;28.70;99.90;;;;;;5115133;28;20439;-80
2023/08/13 13:00:56;;;;;;;4.17;3.87;;;29.10;99.90;;;;;;5113713;28;20478;-79
2023/08/13 13:06:32;;;;;;;3.33;3.03;;;29.30;99.90;;;;;;5116631;28;20538;-78
2023/08/13 13:09:14;;;;;;;3.73;3.43;;;29.80;99.90;;;;;;5117276;28;20463;-79
2023/08/13 13:12:01;;;;;;;3.43;2.97;;;29.90;99.90;;;;;;5115841;28;20477;-80
2023/08/13 13:14:47;;;;;;;3.97;3.23;;;30.20;99.90;;;;;;5100175;28;20468;-79
2023/08/13 13:17:34;;;;;;;5.07;2.93;;;29.60;99.90;;;;;;5099075;28;20811;-79
2023/08/13 13:20:29;;;;;;;;;;;;;;;;;;;;;
2023/08/13 13:23:03;;;;;;;3.53;3.07;;;30.10;99.90;;;;;;5122576;27;20976;-78
2023/08/13 13:25:33;;;;;;;4.80;3.33;;;29.50;99.90;;;;;;5138203;27;20473;-76
2023/08/13 13:28:08;;;;;;;3.17;2.97;;;30.10;99.90;;;;;;5137015;27;20454;-78
2023/08/13 13:30:42;;;;;;;3.23;3.03;;;30.40;99.90;;;;;;5138008;27;20472;-77
2023/08/13 13:33:21;;;;;;;3.03;2.83;;;31.00;99.90;;;;;;5139572;27;20438;-78
2023/08/13 13:35:53;;;;;;;3.27;2.97;;;31.30;99.90;;;;;;5140913;27;20865;-78
2023/08/13 13:38:35;;;;;;;2.70;2.50;;;31.00;99.90;;;;;;5143685;27;20474;-78
2023/08/13 13:41:11;;;;;;;2.83;2.63;;;30.30;99.90;;;;;;5146084;27;20453;-79
2023/08/13 13:43:48;;;;;;;2.90;2.70;;;29.70;99.90;;;;;;5141709;27;20488;-80
2023/08/13 13:46:20;;;;;;;4.43;2.87;;;29.30;99.90;;;;;;5141470;27;20469;-78
2023/08/13 13:48:50;;;;;;;3.40;3.20;;;29.40;99.90;;;;;;5142300;27;20468;-77
2023/08/13 13:51:21;;;;;;;3.10;2.73;;;29.60;99.90;;;;;;5140554;27;20469;-79
2023/08/13 13:53:56;;;;;;;3.13;2.80;;;29.50;99.90;;;;;;5138773;27;20446;-80
2023/08/13 13:56:29;;;;;;;3.23;2.93;;;29.60;99.90;;;;;;5141747;27;20484;-77
2023/08/13 13:59:03;;;;;;;3.07;2.87;;;29.50;99.90;;;;;;5142568;27;20495;-80
2023/08/13 14:01:50;;;;;;;;;;;;;;;;;;;;;
2023/08/13 14:04:31;;;;;;;3.07;2.87;;;29.60;99.90;;;;;;5139133;27;20446;-78
2023/08/13 14:07:07;;;;;;;2.77;2.57;;;29.70;99.90;;;;;;5140377;27;20494;-80
2023/08/13 14:09:41;;;;;;;3.07;2.87;;;29.90;99.90;;;;;;5142807;27;20450;-79
2023/08/13 14:12:30;;;;;;;2.37;2.27;;;30.00;99.90;;;;;;5144868;27;20479;-80
2023/08/13 14:15:05;;;;;;;3.07;2.87;;;29.60;99.90;;;;;;5143061;27;20494;-77
2023/08/13 14:17:44;;;;;;;2.63;2.50;;;29.40;99.90;;;;;;5141627;27;21046;-78
2023/08/13 14:20:38;;;;;;;5.13;2.90;;;29.20;99.90;;;;;;5138176;27;20445;-79
2023/08/13 14:23:34;;;;;;;2.90;2.80;;;28.90;99.90;;;;;;5139948;27;20497;-79
2023/08/13 14:26:15;;;;;;;4.73;2.83;;;28.90;99.90;;;;;;5143066;27;20490;-78
2023/08/13 14:28:56;;;;;;;3.03;2.83;;;29.30;99.90;;;;;;5138633;27;20557;-78
2023/08/13 14:31:37;;;;;;;2.70;2.57;;;30.20;99.90;;;;;;5140058;27;20446;-78
2023/08/13 14:34:43;;;;;;;3.40;2.97;;;30.40;99.90;;;;;;5138231;27;20449;-77
2023/08/13 14:37:28;;;;;;;2.33;2.23;;;30.70;99.90;;;;;;5118948;27;20480;-79
2023/08/13 14:40:11;;;;;;;2.53;2.43;;;30.70;99.90;;;;;;5138243;27;20456;-80
2023/08/13 14:42:40;;;;;;;3.30;3.10;;;31.40;99.90;;;;;;5137044;27;20480;-78
2023/08/13 14:45:12;;;;;;;3.20;2.90;;;31.30;99.90;;;;;;5137777;27;20446;-77
2023/08/13 14:47:43;;;;;;;2.63;2.53;;;31.10;99.90;;;;;;5138918;27;20536;-79
2023/08/13 14:50:11;;;;;;;2.83;2.63;;;31.30;99.90;;;;;;5140110;27;20881;-79
2023/08/13 14:52:53;;;;;;;2.30;2.20;;;31.40;99.90;;;;;;5137053;27;20479;-80
2023/08/13 14:55:26;;;;;;;2.30;2.20;;;31.20;99.90;;;;;;5140968;27;20466;-78
2023/08/13 14:58:02;;;;;;;2.63;2.43;;;31.50;99.90;;;;;;5143094;27;20454;-78
2023/08/13 15:00:39;;;;;;;2.63;2.50;;;31.70;99.90;;;;;;5142705;27;20450;-80
2023/08/13 15:03:13;;;;;;;3.20;2.77;;;31.30;99.90;;;;;;5140753;27;20996;-77
2023/08/13 15:05:46;;;;;;;2.50;2.30;;;31.60;99.90;;;;;;5140322;27;20446;-79
2023/08/13 15:08:27;;;;;;;2.30;2.20;;;31.20;99.90;;;;;;5138950;27;20448;-78
2023/08/13 15:10:55;;;;;;;2.70;2.50;;;31.20;99.90;;;;;;5138830;27;20449;-80
2023/08/13 15:13:28;;;;;;;2.53;2.33;;;30.80;99.90;;;;;;5139689;27;20438;-78
2023/08/13 15:15:59;;;;;;;2.80;2.60;;;30.50;99.90;;;;;;5139432;27;20493;-79
2023/08/13 15:24:22;;;;;;;2.73;2.50;;;30.20;99.90;;;;;;5082942;28;20480;-78
2023/08/13 15:27:04;;;;;;;2.90;2.70;;;30.30;99.90;;;;;;5096200;28;20471;-78
2023/08/13 15:29:47;;;;;;;2.63;2.53;;;30.60;99.90;;;;;;5096816;28;20451;-78
2023/08/13 15:32:33;;;;;;;2.53;2.33;;;30.70;99.90;;;;;;5098732;28;20798;-78
2023/08/13 15:35:05;;;;;;;2.30;2.20;;;30.20;99.90;;;;;;5095594;28;20504;-78
2023/08/13 15:37:35;;;;;;;3.27;2.23;;;30.30;99.90;;;;;;5095064;28;20455;-78
2023/08/13 15:40:20;;;;;;;4.27;3.20;;;30.80;99.90;;;;;;5094765;28;20557;-78
2023/08/13 15:43:08;;;;;;;2.73;2.53;;;31.10;99.90;;;;;;5097133;28;20856;-78
2023/08/13 15:45:41;;;;;;;2.40;2.30;;;31.50;99.90;;;;;;5099526;28;20902;-79
2023/08/13 15:48:19;;;;;;;2.80;2.60;;;32.10;99.90;;;;;;5101162;28;20474;-81
2023/08/13 15:50:53;;;;;;;2.60;2.40;;;32.00;99.90;;;;;;5100467;28;20448;-78
2023/08/13 15:53:22;;;;;;;2.80;2.50;;;31.70;99.90;;;;;;5095085;28;20440;-78
2023/08/13 15:56:00;;;;;;;2.53;2.30;;;31.50;99.90;;;;;;5094327;28;20537;-78
2023/08/13 15:58:42;;;;;;;2.50;2.30;;;31.00;99.90;;;;;;5094200;28;20447;-77
2023/08/13 16:01:43;;;;;;;2.50;2.30;;;30.30;99.90;;;;;;5094442;28;20462;-78
2023/08/13 16:04:32;;;;;;;3.10;2.43;;;30.70;99.90;;;;;;5094457;28;20482;-80
2023/08/13 16:10:01;;;;;;;2.73;2.63;;;30.70;99.90;;;;;;5095923;28;20428;-78
2023/08/13 16:15:54;;;;;;;2.80;2.50;;;30.80;99.90;;;;;;5070993;28;20455;-79
2023/08/13 16:18:39;;;;;;;3.20;2.90;;;31.10;99.90;;;;;;5103110;28;20516;-77
2023/08/13 16:21:15;;;;;;;2.60;2.50;;;31.40;99.90;;;;;;5102225;28;20431;-79
2023/08/13 16:23:48;;;;;;;3.37;3.17;;;31.30;99.90;;;;;;5134362;28;20469;-78
2023/08/13 16:26:26;;;;;;;4.03;3.73;;;30.70;99.90;;;;;;5137523;27;20470;-77
2023/08/13 16:29:23;;;;;;;2.80;2.60;;;30.70;99.90;;;;;;5138255;27;20457;-78
2023/08/13 16:38:24;;;;;;;2.80;2.37;;;30.30;99.90;;;;;;5138293;28;20444;-79
2023/08/13 16:41:14;;;;;;;3.20;2.93;;;30.10;99.90;;;;;;5139751;28;20438;-78
2023/08/13 16:43:51;;;;;;;2.90;2.70;;;29.50;99.90;;;;;;5141545;27;20482;-78
2023/08/13 16:53:24;;;;;;;2.60;2.40;;;29.60;99.90;;;;;;5097314;27;20430;-78
2023/08/13 16:59:17;;;;;;;3.20;2.40;;;30.10;99.90;;;;;;5142212;27;20426;-78
2023/08/13 17:01:54;;;;;;;2.90;2.70;;;29.60;99.90;;;;;;5146773;27;20434;-78
2023/08/13 17:04:44;;;;;;;3.17;2.97;;;29.30;99.90;;;;;;5147148;27;20517;-79
2023/08/13 17:07:17;;;;;;;4.03;3.20;;;29.30;99.90;;;;;;5148226;27;20476;-79
2023/08/13 17:09:50;;;;;;;3.50;3.20;;;29.30;99.90;;;;;;5148612;27;20534;-79
2023/08/13 17:12:24;;;;;;;3.60;3.30;;;29.20;99.90;;;;;;5148974;27;20461;-79
2023/08/13 17:14:56;;;;;;;3.30;3.00;;;29.00;99.90;;;;;;5149212;27;20463;-79
2023/08/13 17:17:42;;;;;;;3.50;3.20;;;28.70;99.90;;;;;;5146655;27;20450;-78
2023/08/13 17:23:24;;;;;;;6.80;4.60;;;28.40;99.90;;;;;;5129871;27;20518;-79
2023/08/13 17:26:12;;;;;;;3.40;3.13;;;28.10;99.90;;;;;;5123907;28;20478;-78
2023/08/13 17:28:51;;;;;;;3.43;3.13;;;28.10;99.90;;;;;;5123957;28;20419;-78
2023/08/13 17:34:40;;;;;;;6.07;5.57;;;27.90;99.90;;;;;;5121923;28;20423;-78
2023/08/13 17:37:45;;;;;;;4.20;3.37;;;27.80;99.90;;;;;;5127924;28;20467;-78
2023/08/13 17:40:22;;;;;;;4.20;3.47;;;27.70;99.90;;;;;;5045428;28;20787;-78
2023/08/13 17:43:08;;;;;;;4.03;3.77;;;27.50;99.90;;;;;;5125914;28;20481;-78
2023/08/13 17:45:50;;;;;;;3.80;3.50;;;27.30;99.90;;;;;;5127717;28;20467;-79
2023/08/13 17:48:37;;;;;;;4.23;3.90;;;27.20;99.90;;;;;;5129860;28;20439;-78
2023/08/13 17:51:12;;;;;;;4.27;3.70;;;27.20;99.90;;;;;;5130181;28;20468;-79
2023/08/13 17:53:43;;;;;;;4.20;3.90;;;27.10;99.90;;;;;;5132303;28;20449;-79
2023/08/13 17:56:11;;;;;;;3.80;3.57;;;27.00;99.90;;;;;;5132728;28;20458;-79
2023/08/13 17:58:40;;;;;;;4.30;3.90;;;27.20;99.90;;;;;;5132765;28;20462;-79
2023/08/13 18:01:14;;;;;;;3.50;3.20;;;26.80;99.90;;;;;;5134112;28;20471;-78
2023/08/13 18:04:05;;;;;;;6.40;3.30;;;26.60;99.90;;;;;;5134292;28;20482;-79
2023/08/13 18:06:52;;;;;;;4.13;3.73;;;26.50;99.90;;;;;;5133819;28;20474;-77
2023/08/13 18:09:25;;;;;;;3.63;3.43;;;26.50;99.90;;;;;;5135407;28;20450;-78
2023/08/13 18:12:08;;;;;;;4.47;3.73;;;26.40;99.90;;;;;;5135738;28;20444;-78
2023/08/13 18:14:48;;;;;;;3.90;3.50;;;26.40;99.90;;;;;;5135985;28;20439;-77